Time;durP1;ratioP1;P1;durP2;ratioP2;P2;SDS_P1;SDS_P2;PMS_P1;PMS_P2;Temp;Humidity;BMP_temperature;BMP_pressure;BME280_temperature;BME280_humidity;BME280_pressure;Samples;Min_cycle;Max_cycle;Signal;HPM_P1;HPM_P2
2023/12/06 00:01:47;;;;;;;73.53;55.17;;;;;;;1.21;100.00;100996.28;5071956;28;20207;-81
2023/12/06 00:04:12;;;;;;;74.22;55.63;;;;;;;1.19;100.00;100987.69;5072723;28;20123;-80
2023/12/06 00:06:38;;;;;;;72.63;55.13;;;;;;;1.21;100.00;100980.75;5071974;28;20028;-80
2023/12/06 00:09:03;;;;;;;71.72;55.38;;;;;;;1.22;100.00;100991.97;5068197;28;20045;-80
2023/12/06 00:11:28;;;;;;;73.07;54.47;;;;;;;1.21;100.00;100993.69;5049857;28;20032;-80
2023/12/06 00:13:54;;;;;;;70.47;54.13;;;;;;;1.22;100.00;100990.22;5048354;28;20035;-80
2023/12/06 00:16:19;;;;;;;71.68;55.88;;;;;;;1.20;100.00;100999.78;5035161;28;20028;-80
2023/12/06 00:18:45;;;;;;;74.95;57.05;;;;;;;1.23;100.00;101002.28;5038720;28;20040;-80
2023/12/06 00:21:11;;;;;;;71.05;54.83;;;;;;;1.23;100.00;100999.69;5048727;28;20081;-80
2023/12/06 00:23:36;;;;;;;72.13;56.60;;;;;;;1.24;100.00;101003.97;5049541;28;20037;-80
2023/12/06 00:26:02;;;;;;;73.00;55.30;;;;;;;1.27;100.00;101004.75;5047881;28;20477;-80
2023/12/06 00:28:27;;;;;;;74.90;55.28;;;;;;;1.29;100.00;101018.50;5047720;28;20074;-80
2023/12/06 00:30:53;;;;;;;72.57;56.58;;;;;;;1.29;100.00;101013.34;5047205;28;20028;-80
2023/12/06 00:33:18;;;;;;;70.15;53.58;;;;;;;1.29;100.00;101008.16;5041257;28;20091;-80
2023/12/06 00:35:44;;;;;;;72.00;55.10;;;;;;;1.25;100.00;101008.25;5046279;28;20036;-80
2023/12/06 00:38:10;;;;;;;68.40;54.72;;;;;;;1.25;100.00;101016.03;5038984;28;20033;-80
2023/12/06 00:40:35;;;;;;;74.57;54.80;;;;;;;1.28;100.00;101022.00;5057324;28;20021;-80
2023/12/06 00:43:03;;;;;;;73.57;54.50;;;;;;;1.33;100.00;101025.28;5049828;28;20502;-80
2023/12/06 00:45:29;;;;;;;70.07;53.65;;;;;;;1.30;100.00;101022.81;5049466;28;20036;-80
2023/12/06 00:47:54;;;;;;;70.78;54.13;;;;;;;1.29;100.00;101026.28;5049835;28;20028;-79
2023/12/06 00:50:20;;;;;;;70.03;52.67;;;;;;;1.31;100.00;101034.88;5040804;28;20072;-80
2023/12/06 00:52:45;;;;;;;69.65;52.17;;;;;;;1.28;100.00;101030.63;5039926;28;20021;-79
2023/12/06 00:55:11;;;;;;;70.10;53.08;;;;;;;1.30;100.00;101033.16;5030222;28;20026;-80
2023/12/06 00:57:36;;;;;;;67.90;52.25;;;;;;;1.31;100.00;101040.91;5071613;28;20119;-80
2023/12/06 01:00:02;;;;;;;66.85;51.28;;;;;;;1.29;100.00;101039.25;5061668;28;20494;-79
2023/12/06 01:02:28;;;;;;;64.72;50.90;;;;;;;1.32;100.00;101052.94;5048881;28;20025;-79
2023/12/06 01:04:53;;;;;;;63.83;49.60;;;;;;;1.32;100.00;101044.34;5051847;28;20163;-82
2023/12/06 01:07:18;;;;;;;62.08;49.22;;;;;;;1.34;100.00;101047.72;5050142;28;20035;-79
2023/12/06 01:09:44;;;;;;;62.35;50.30;;;;;;;1.34;100.00;101052.91;5033143;28;20400;-80
2023/12/06 01:12:10;;;;;;;62.20;48.67;;;;;;;1.36;100.00;101053.69;5050560;28;20041;-80
2023/12/06 01:14:35;;;;;;;61.08;47.83;;;;;;;1.36;100.00;101048.50;5049342;28;20031;-80
2023/12/06 01:17:01;;;;;;;63.40;48.47;;;;;;;1.35;100.00;101065.81;5047550;28;20078;-80
2023/12/06 01:19:26;;;;;;;58.97;47.65;;;;;;;1.37;100.00;101060.56;5048442;28;20104;-80
2023/12/06 01:21:52;;;;;;;57.53;46.20;;;;;;;1.34;100.00;101060.69;5049635;28;20115;-80
2023/12/06 01:24:17;;;;;;;56.10;45.03;;;;;;;1.33;100.00;101067.59;5049497;28;20032;-80
2023/12/06 01:26:42;;;;;;;57.10;45.92;;;;;;;1.33;100.00;101074.53;5037309;28;20036;-80
2023/12/06 01:29:09;;;;;;;53.88;45.13;;;;;;;1.31;100.00;101071.16;5033953;28;20028;-79
2023/12/06 01:31:34;;;;;;;57.28;45.13;;;;;;;1.31;100.00;101077.19;5059395;28;20033;-79
2023/12/06 01:34:00;;;;;;;57.15;45.00;;;;;;;1.33;100.00;101075.38;5046805;28;20401;-79
2023/12/06 01:36:26;;;;;;;55.65;45.50;;;;;;;1.34;100.00;101084.00;5047978;28;20029;-80
2023/12/06 01:38:51;;;;;;;54.15;44.88;;;;;;;1.35;100.00;101083.09;5048929;28;20094;-80
2023/12/06 01:41:17;;;;;;;56.78;45.78;;;;;;;1.33;100.00;101084.91;5053642;28;20032;-80
2023/12/06 01:43:43;;;;;;;52.88;43.50;;;;;;;1.32;100.00;101088.41;5039130;28;20033;-80
2023/12/06 01:46:09;;;;;;;53.40;43.85;;;;;;;1.32;100.00;101089.25;5039300;28;20619;-80
2023/12/06 01:48:36;;;;;;;52.92;43.22;;;;;;;1.33;100.00;101090.09;5068452;28;20031;-80
2023/12/06 01:51:02;;;;;;;55.95;43.53;;;;;;;1.33;100.00;101100.47;5047168;28;20463;-80
2023/12/06 01:53:28;;;;;;;53.38;43.88;;;;;;;1.34;100.00;101097.81;5048324;28;20028;-80
2023/12/06 01:55:54;;;;;;;51.45;43.05;;;;;;;1.34;100.00;101102.16;5048681;28;20024;-80
2023/12/06 01:58:20;;;;;;;50.95;43.00;;;;;;;1.33;100.00;101100.47;5048642;28;20444;-80
2023/12/06 02:00:46;;;;;;;50.50;42.28;;;;;;;1.34;100.00;101096.97;5064022;28;20058;-80
2023/12/06 02:03:13;;;;;;;49.35;42.20;;;;;;;1.33;100.00;101101.31;5041455;28;20060;-80
2023/12/06 02:05:38;;;;;;;49.17;41.00;;;;;;;1.33;100.00;101096.13;5029125;28;20029;-80
2023/12/06 02:08:04;;;;;;;49.70;41.88;;;;;;;1.36;100.00;101105.53;5049428;28;20522;-80
2023/12/06 02:10:29;;;;;;;47.50;41.00;;;;;;;1.35;100.00;101109.03;5057883;28;20033;-81
2023/12/06 02:12:55;;;;;;;48.50;41.60;;;;;;;1.36;100.00;101111.56;5046385;28;20052;-80
2023/12/06 02:15:21;;;;;;;45.97;40.58;;;;;;;1.35;100.00;101111.63;5046261;28;20025;-80
2023/12/06 02:17:48;;;;;;;46.22;40.95;;;;;;;1.37;100.00;101117.59;5033113;28;20111;-80
2023/12/06 02:20:14;;;;;;;43.83;39.00;;;;;;;1.38;100.00;101116.72;5044056;28;20021;-80
2023/12/06 02:22:40;;;;;;;44.90;39.35;;;;;;;1.39;100.00;101118.41;5036296;28;20041;-80
2023/12/06 02:25:11;;;;;;;44.13;39.10;;;;;;;1.40;100.00;101117.50;5044719;28;20021;-80
2023/12/06 02:27:40;;;;;;;43.67;39.05;;;;;;;1.41;100.00;101114.00;5047407;28;20039;-81
2023/12/06 02:30:06;;;;;;;44.00;37.83;;;;;;;1.41;100.00;101114.84;5047457;28;20512;-81
2023/12/06 02:32:31;;;;;;;43.20;37.72;;;;;;;1.45;100.00;101120.78;5040337;28;20037;-81
2023/12/06 02:34:58;;;;;;;42.58;37.97;;;;;;;1.46;100.00;101119.91;5048012;28;20396;-80
2023/12/06 02:37:24;;;;;;;40.83;36.33;;;;;;;1.46;100.00;101119.91;5046876;28;20127;-80
2023/12/06 02:39:51;;;;;;;42.90;37.03;;;;;;;1.47;100.00;101117.25;5049400;28;20096;-80
2023/12/06 02:42:17;;;;;;;40.80;36.42;;;;;;;1.48;100.00;101120.69;5047031;28;20035;-80
2023/12/06 02:44:42;;;;;;;41.17;36.67;;;;;;;1.48;100.00;101115.50;5047325;28;20029;-80
2023/12/06 02:47:07;;;;;;;40.25;35.90;;;;;;;1.51;100.00;101111.06;5047313;28;20487;-80
2023/12/06 02:49:33;;;;;;;40.95;36.53;;;;;;;1.53;100.00;101116.19;5038695;28;20029;-80
2023/12/06 02:52:01;;;;;;;40.15;35.75;;;;;;;1.52;100.00;101119.69;5031463;28;20167;-80
2023/12/06 02:54:26;;;;;;;39.53;35.30;;;;;;;1.53;100.00;101122.25;5040794;28;20032;-80
2023/12/06 02:56:51;;;;;;;41.80;36.75;;;;;;;1.54;100.00;101117.91;5048328;28;20025;-80
2023/12/06 02:59:17;;;;;;;41.40;36.25;;;;;;;1.56;100.00;101126.47;5047579;28;20106;-80
2023/12/06 03:01:46;;;;;;;42.13;36.78;;;;;;;1.57;100.00;101125.56;5046764;28;20170;-80
2023/12/06 03:04:12;;;;;;;41.38;36.05;;;;;;;1.56;100.00;101129.06;5047573;28;20496;-80
2023/12/06 03:06:37;;;;;;;41.72;36.10;;;;;;;1.60;100.00;101129.81;5042848;28;20024;-79
2023/12/06 03:09:03;;;;;;;40.83;36.50;;;;;;;1.60;100.00;101116.84;5038501;28;21156;-79
2023/12/06 03:11:28;;;;;;;40.05;35.80;;;;;;;1.60;100.00;101116.84;5037067;28;20041;-79
2023/12/06 03:13:54;;;;;;;40.25;35.90;;;;;;;1.62;100.00;101115.09;5046180;28;20385;-79
2023/12/06 03:16:19;;;;;;;41.00;35.55;;;;;;;1.62;100.00;101110.75;5036597;28;20484;-80
2023/12/06 03:18:44;;;;;;;43.08;36.78;;;;;;;1.64;100.00;101116.72;5045342;28;20496;-80
2023/12/06 03:21:10;;;;;;;42.40;35.67;;;;;;;1.64;100.00;101126.25;5047608;28;20476;-80
2023/12/06 03:23:35;;;;;;;40.20;36.00;;;;;;;1.64;100.00;101134.03;5043754;28;20052;-80
2023/12/06 03:26:01;;;;;;;39.80;35.65;;;;;;;1.67;100.00;101131.34;5046252;28;20032;-80
2023/12/06 03:28:27;;;;;;;39.67;35.30;;;;;;;1.64;100.00;101127.09;5044237;28;20028;-80
2023/12/06 03:30:52;;;;;;;39.08;34.80;;;;;;;1.67;100.00;101139.13;5043861;28;20040;-80
2023/12/06 03:33:17;;;;;;;38.83;34.55;;;;;;;1.67;100.00;101144.31;5045402;28;20373;-80
2023/12/06 03:35:43;;;;;;;39.63;33.83;;;;;;;1.69;100.00;101142.50;5045056;28;20025;-80
2023/12/06 03:38:08;;;;;;;37.25;33.45;;;;;;;1.72;100.00;101145.84;5047758;28;20047;-80
2023/12/06 03:40:33;;;;;;;38.65;34.42;;;;;;;1.72;100.00;101150.19;5047143;28;20055;-80
2023/12/06 03:42:59;;;;;;;38.47;34.50;;;;;;;1.74;100.00;101143.19;5047370;28;20109;-80
2023/12/06 03:45:24;;;;;;;38.45;33.97;;;;;;;1.75;100.00;101144.91;5045673;28;20079;-79
2023/12/06 03:47:50;;;;;;;39.05;34.78;;;;;;;1.75;100.00;101153.53;5048654;28;20524;-80
2023/12/06 03:50:15;;;;;;;38.53;34.17;;;;;;;1.77;100.00;101146.53;5045916;28;20033;-80
2023/12/06 03:52:41;;;;;;;40.28;34.05;;;;;;;1.78;100.00;101155.16;5044502;28;20040;-81
2023/12/06 03:55:07;;;;;;;37.33;33.25;;;;;;;1.81;100.00;101153.31;5032268;28;20071;-81
2023/12/06 03:57:32;;;;;;;37.92;33.97;;;;;;;1.81;100.00;101155.91;5031850;28;20121;-81
2023/12/06 03:59:58;;;;;;;37.65;33.75;;;;;;;1.81;100.00;101160.25;5056847;28;20509;-81
2023/12/06 04:02:23;;;;;;;37.67;33.58;;;;;;;1.84;100.00;101158.41;5046657;28;20029;-81
2023/12/06 04:04:48;;;;;;;36.70;33.00;;;;;;;1.86;100.00;101155.75;5044919;28;20032;-81
2023/12/06 04:07:14;;;;;;;37.42;33.42;;;;;;;1.87;100.00;101158.31;5047338;28;20159;-81
2023/12/06 04:09:39;;;;;;;36.38;32.58;;;;;;;1.88;100.00;101156.56;5042171;28;20049;-81
2023/12/06 04:12:06;;;;;;;36.88;33.13;;;;;;;1.91;100.00;101165.97;5037878;28;20036;-81
2023/12/06 04:14:31;;;;;;;37.55;33.53;;;;;;;1.91;100.00;101158.19;5033653;28;20686;-80
2023/12/06 04:16:56;;;;;;;38.22;34.22;;;;;;;1.93;100.00;101164.19;5048192;28;20079;-81
2023/12/06 04:19:22;;;;;;;37.47;33.42;;;;;;;1.94;100.00;101161.53;5044015;28;20043;-81
2023/12/06 04:21:47;;;;;;;37.58;33.63;;;;;;;1.94;100.00;101168.47;5046676;28;20037;-81
2023/12/06 04:24:13;;;;;;;37.83;33.75;;;;;;;1.96;100.00;101166.66;5047072;28;20469;-81
2023/12/06 04:26:38;;;;;;;38.08;33.97;;;;;;;1.99;100.00;101174.34;5045387;28;20132;-81
2023/12/06 04:29:03;;;;;;;40.13;33.75;;;;;;;2.00;100.00;101170.84;5032941;28;20083;-81
2023/12/06 04:31:29;;;;;;;39.20;34.65;;;;;;;2.02;100.00;101179.47;5045252;28;20730;-80
2023/12/06 04:33:54;;;;;;;37.65;33.60;;;;;;;2.03;100.00;101181.16;5049647;28;20107;-80
2023/12/06 04:36:21;;;;;;;38.30;34.05;;;;;;;2.04;100.00;101178.53;5048019;28;20469;-81
2023/12/06 04:38:46;;;;;;;37.08;33.15;;;;;;;2.05;100.00;101174.19;5050190;28;20559;-81
2023/12/06 04:41:12;;;;;;;37.03;33.13;;;;;;;2.07;100.00;101185.34;5051302;28;20029;-81
2023/12/06 04:43:37;;;;;;;37.80;33.70;;;;;;;2.09;100.00;101186.16;5050225;28;20025;-81
2023/12/06 04:46:03;;;;;;;40.67;36.05;;;;;;;2.10;100.00;101187.84;5047841;28;20024;-80
2023/12/06 04:48:28;;;;;;;40.00;35.53;;;;;;;2.11;100.00;101189.53;5045180;28;20025;-80
2023/12/06 04:50:53;;;;;;;39.40;35.08;;;;;;;2.12;100.00;101186.03;5050013;28;20044;-81
2023/12/06 04:53:19;;;;;;;40.00;35.78;;;;;;;2.13;100.00;101188.59;5050330;28;20024;-80
2023/12/06 04:55:45;;;;;;;39.33;35.13;;;;;;;2.14;100.00;101199.81;5050373;28;20488;-80
2023/12/06 04:58:10;;;;;;;42.80;36.13;;;;;;;2.15;100.00;101196.31;5050031;28;20108;-81
2023/12/06 05:00:36;;;;;;;40.60;36.20;;;;;;;2.16;100.00;101198.84;5050458;28;20127;-80
2023/12/06 05:03:02;;;;;;;43.47;35.92;;;;;;;2.15;100.00;101197.16;5046878;28;20116;-81
2023/12/06 05:05:28;;;;;;;42.58;37.67;;;;;;;2.20;100.00;101210.00;5037070;28;20021;-80
2023/12/06 05:07:55;;;;;;;40.80;36.35;;;;;;;2.19;100.00;101208.28;5030357;28;20084;-81
2023/12/06 05:10:21;;;;;;;43.40;37.03;;;;;;;2.20;100.00;101208.25;5030143;28;20659;-81
2023/12/06 05:12:46;;;;;;;41.33;36.85;;;;;;;2.22;100.00;101218.56;5029891;28;20085;-81
2023/12/06 05:15:12;;;;;;;44.97;37.35;;;;;;;2.22;100.00;101213.38;5028056;28;20025;-81
2023/12/06 05:17:37;;;;;;;45.38;38.72;;;;;;;2.20;100.00;101216.03;5043519;28;20524;-80
2023/12/06 05:20:03;;;;;;;43.55;38.15;;;;;;;2.25;100.00;101222.81;5030515;28;20105;-81
2023/12/06 05:22:28;;;;;;;43.83;38.03;;;;;;;2.24;100.00;101214.16;5029450;28;20040;-80
2023/12/06 05:24:54;;;;;;;45.33;38.90;;;;;;;2.26;100.00;101222.75;5030658;28;20049;-81
2023/12/06 05:27:19;;;;;;;44.58;38.78;;;;;;;2.28;100.00;101220.94;5029818;28;20057;-81
2023/12/06 05:29:44;;;;;;;44.80;39.22;;;;;;;2.31;100.00;101222.59;5029944;28;20030;-81
2023/12/06 05:32:10;;;;;;;49.20;40.35;;;;;;;2.29;100.00;101222.66;5047848;28;20063;-81
2023/12/06 05:34:35;;;;;;;46.95;39.65;;;;;;;2.32;100.00;101229.47;5043308;28;20104;-81
2023/12/06 05:37:00;;;;;;;49.40;39.00;;;;;;;2.34;100.00;101227.69;5044592;28;20025;-81
2023/12/06 05:39:26;;;;;;;44.78;39.80;;;;;;;2.33;100.00;101221.66;5050409;28;20090;-81
2023/12/06 05:41:51;;;;;;;48.80;41.60;;;;;;;2.33;100.00;101224.25;5056597;28;20029;-81
2023/12/06 05:44:17;;;;;;;55.13;42.15;;;;;;;2.37;100.00;101231.03;5047728;28;20151;-81
2023/12/06 05:46:45;;;;;;;48.10;41.35;;;;;;;2.40;100.00;101223.16;5050204;28;20079;-81
2023/12/06 05:49:11;;;;;;;48.90;41.83;;;;;;;2.40;100.00;101225.75;5048723;28;20036;-81
2023/12/06 05:51:36;;;;;;;49.85;41.63;;;;;;;2.42;100.00;101225.69;5048519;28;20035;-81
2023/12/06 05:54:03;;;;;;;48.88;40.38;;;;;;;2.44;100.00;101237.72;5044479;28;20114;-81
2023/12/06 05:56:28;;;;;;;45.38;39.47;;;;;;;2.45;100.00;101234.22;5032838;28;20033;-81
2023/12/06 05:58:54;;;;;;;48.40;39.72;;;;;;;2.47;100.00;101239.38;5033305;28;20507;-81
2023/12/06 06:01:19;;;;;;;49.33;39.53;;;;;;;2.45;100.00;101239.44;5049683;28;20530;-80
2023/12/06 06:03:44;;;;;;;45.03;38.72;;;;;;;2.48;100.00;101235.88;5050837;28;20021;-81
2023/12/06 06:06:10;;;;;;;45.78;39.03;;;;;;;2.49;100.00;101246.22;5048454;28;20043;-80
2023/12/06 06:08:36;;;;;;;47.78;38.00;;;;;;;2.50;100.00;101249.66;5049084;28;20057;-81
2023/12/06 06:11:02;;;;;;;44.65;38.20;;;;;;;2.51;100.00;101247.00;5043862;28;20033;-81
2023/12/06 06:13:29;;;;;;;42.28;37.50;;;;;;;2.53;100.00;101251.28;5028925;28;20032;-80
2023/12/06 06:16:03;;;;;;;43.67;37.85;;;;;;;2.56;100.00;101253.78;5029762;28;20101;-81
2023/12/06 06:18:29;;;;;;;44.63;36.70;;;;;;;2.56;100.00;101253.78;5037139;28;20031;-80
2023/12/06 06:20:54;;;;;;;42.25;35.78;;;;;;;2.56;100.00;101258.97;5069115;28;20016;-80
2023/12/06 06:23:20;;;;;;;46.00;36.35;;;;;;;2.56;100.00;101258.97;5068541;28;20020;-80
2023/12/06 06:25:45;;;;;;;38.67;34.47;;;;;;;2.56;100.00;101266.78;5054661;28;20497;-80
2023/12/06 06:28:11;;;;;;;41.13;34.17;;;;;;;2.55;100.00;101267.69;5049061;28;20107;-79
2023/12/06 06:30:37;;;;;;;40.20;34.65;;;;;;;2.57;100.00;101271.06;5038716;28;20124;-79
2023/12/06 06:33:02;;;;;;;40.30;33.20;;;;;;;2.56;100.00;101277.16;5041040;28;20077;-80
2023/12/06 06:35:30;;;;;;;39.13;33.40;;;;;;;2.55;100.00;101278.91;5045343;28;20495;-80
2023/12/06 06:37:56;;;;;;;36.45;32.50;;;;;;;2.54;100.00;101281.56;5047334;28;20401;-80
2023/12/06 06:40:22;;;;;;;39.28;32.33;;;;;;;2.56;100.00;101284.94;5046998;28;20031;-81
2023/12/06 06:42:48;;;;;;;41.17;33.20;;;;;;;2.55;100.00;101288.44;5046638;28;20096;-81
2023/12/06 06:45:13;;;;;;;37.80;31.73;;;;;;;2.57;100.00;101294.44;5046650;28;20091;-81
2023/12/06 06:47:38;;;;;;;38.72;32.40;;;;;;;2.56;100.00;101295.34;5046383;28;20540;-81
2023/12/06 06:50:04;;;;;;;39.25;32.80;;;;;;;2.59;100.00;101290.03;5041418;28;20039;-81
2023/12/06 06:52:33;;;;;;;37.88;31.75;;;;;;;2.56;100.00;101292.75;5028829;28;20101;-81
2023/12/06 06:54:58;;;;;;;39.35;33.20;;;;;;;2.56;100.00;101293.59;5045966;28;20028;-81
2023/12/06 06:57:23;;;;;;;38.25;32.80;;;;;;;2.58;100.00;101293.53;5046404;28;20029;-81
2023/12/06 06:59:49;;;;;;;38.53;33.72;;;;;;;2.59;100.00;101295.25;5049521;28;20028;-80
2023/12/06 07:02:16;;;;;;;42.45;33.20;;;;;;;2.61;100.00;101298.63;5045538;28;20465;-81
2023/12/06 07:04:41;;;;;;;42.17;33.20;;;;;;;2.60;100.00;101305.56;5046936;28;20074;-80
2023/12/06 07:07:12;;;;;;;37.47;32.42;;;;;;;2.60;100.00;101307.31;5048438;28;20025;-81
2023/12/06 07:09:37;;;;;;;39.47;32.45;;;;;;;2.60;100.00;101296.94;5040664;28;20474;-81
2023/12/06 07:12:03;;;;;;;39.78;33.40;;;;;;;2.62;100.00;101305.53;5034847;28;20030;-81
2023/12/06 07:14:32;;;;;;;38.85;32.40;;;;;;;2.59;100.00;101305.63;5027368;28;20477;-81
2023/12/06 07:16:59;;;;;;;36.20;32.30;;;;;;;2.62;100.00;101308.13;5045514;28;20029;-81
2023/12/06 07:19:24;;;;;;;35.50;31.63;;;;;;;2.61;100.00;101302.06;5047572;28;20487;-81
2023/12/06 07:21:50;;;;;;;38.13;33.03;;;;;;;2.63;100.00;101312.41;5047879;28;20059;-81
2023/12/06 07:24:20;;;;;;;40.00;33.40;;;;;;;2.64;100.00;101312.34;5047823;28;20029;-81
2023/12/06 07:26:46;;;;;;;41.67;32.90;;;;;;;2.64;100.00;101314.09;5042960;28;20036;-81
2023/12/06 07:29:12;;;;;;;41.67;34.88;;;;;;;2.65;100.00;101313.22;5029220;28;20025;-81
2023/12/06 07:31:38;;;;;;;42.55;34.40;;;;;;;2.66;100.00;101315.75;5041353;28;20047;-80
2023/12/06 07:34:03;;;;;;;40.53;33.40;;;;;;;2.66;100.00;101314.91;5036788;28;20064;-81
2023/12/06 07:36:28;;;;;;;37.15;33.13;;;;;;;2.60;100.00;101322.91;5048453;28;20119;-80
2023/12/06 07:38:54;;;;;;;37.10;33.10;;;;;;;2.56;100.00;101326.50;5045817;28;20029;-80
2023/12/06 07:41:19;;;;;;;36.90;31.75;;;;;;;2.46;100.00;101326.81;5047863;28;20481;-80
2023/12/06 07:43:44;;;;;;;36.45;32.25;;;;;;;2.42;100.00;101330.41;5046708;28;20386;-80
2023/12/06 07:46:10;;;;;;;38.03;32.05;;;;;;;2.34;100.00;101332.38;5036821;28;20154;-80
2023/12/06 07:48:35;;;;;;;38.60;32.50;;;;;;;2.33;100.00;101335.88;5046335;28;20025;-80
2023/12/06 07:51:01;;;;;;;36.85;32.15;;;;;;;2.26;100.00;101338.72;5046062;28;20033;-80
2023/12/06 07:53:27;;;;;;;43.42;33.92;;;;;;;2.23;100.00;101338.81;5048218;28;20032;-80
2023/12/06 07:55:55;;;;;;;41.95;33.80;;;;;;;2.16;100.00;101345.97;5047616;28;20025;-80
2023/12/06 07:58:30;;;;;;;40.75;33.42;;;;;;;2.10;100.00;101343.56;5044377;28;20078;-80
2023/12/06 08:00:57;;;;;;;37.08;33.05;;;;;;;2.07;100.00;101341.06;5045628;28;20013;-80
2023/12/06 08:03:26;;;;;;;41.95;33.47;;;;;;;2.03;100.00;101345.50;5038122;28;20029;-80
2023/12/06 08:05:52;;;;;;;38.63;32.85;;;;;;;2.02;100.00;101350.75;5039168;28;20027;-81
2023/12/06 08:08:17;;;;;;;38.97;33.20;;;;;;;1.97;100.00;101342.22;5044343;28;20033;-80
2023/12/06 08:10:43;;;;;;;40.88;32.20;;;;;;;1.97;100.00;101353.44;5047764;28;20028;-80
2023/12/06 08:13:09;;;;;;;37.42;33.08;;;;;;;1.96;100.00;101356.09;5050472;28;20469;-80
2023/12/06 08:15:34;;;;;;;38.22;32.33;;;;;;;1.98;100.00;101359.47;5050268;28;20031;-80
2023/12/06 08:17:59;;;;;;;37.33;33.33;;;;;;;1.95;100.00;101365.63;5043515;28;20036;-79
2023/12/06 08:20:25;;;;;;;37.30;32.70;;;;;;;1.98;100.00;101375.06;5049485;28;20036;-79
2023/12/06 08:22:50;;;;;;;41.10;34.03;;;;;;;1.99;100.00;101375.00;5051978;28;20025;-79
2023/12/06 08:25:15;;;;;;;38.38;34.25;;;;;;;1.98;100.00;101367.28;5049945;28;20036;-80
2023/12/06 08:27:41;;;;;;;41.00;34.40;;;;;;;2.00;100.00;101373.25;5050264;28;20029;-80
2023/12/06 08:30:06;;;;;;;42.95;34.75;;;;;;;2.02;100.00;101381.88;5048796;28;20025;-80
2023/12/06 08:32:32;;;;;;;41.40;34.17;;;;;;;1.99;100.00;101375.00;5049143;28;20025;-79
2023/12/06 08:35:03;;;;;;;38.75;33.63;;;;;;;2.01;100.00;101375.00;5049733;28;20024;-79
2023/12/06 08:37:28;;;;;;;42.00;33.00;;;;;;;2.03;100.00;101368.00;5047930;28;20021;-79
2023/12/06 08:39:54;;;;;;;41.67;33.78;;;;;;;2.04;100.00;101374.91;5066839;28;20032;-80
2023/12/06 08:42:19;;;;;;;39.30;32.15;;;;;;;2.09;100.00;101388.56;5059314;28;20060;-80
2023/12/06 08:44:44;;;;;;;39.45;32.80;;;;;;;2.08;100.00;101386.88;5049829;28;20123;-80
2023/12/06 08:47:11;;;;;;;37.45;33.22;;;;;;;2.10;100.00;101391.13;5030834;28;20028;-80
2023/12/06 08:49:38;;;;;;;40.20;32.75;;;;;;;2.13;100.00;101403.16;5031379;28;20029;-80
2023/12/06 08:52:05;;;;;;;37.35;32.42;;;;;;;2.21;100.00;101398.59;5030784;28;20392;-80
2023/12/06 08:54:31;;;;;;;40.90;32.13;;;;;;;2.22;100.00;101392.50;5031409;28;20029;-80
2023/12/06 08:57:00;;;;;;;41.00;32.80;;;;;;;2.25;100.00;101409.72;5057162;28;20484;-80
2023/12/06 08:59:26;;;;;;;38.10;32.83;;;;;;;2.27;100.00;101413.13;5071934;28;20019;-80
2023/12/06 09:01:51;;;;;;;39.70;32.30;;;;;;;2.29;100.00;101417.38;5069861;28;20468;-79
2023/12/06 09:04:17;;;;;;;39.22;31.88;;;;;;;2.32;100.00;101414.66;5039172;28;20891;-80
2023/12/06 09:06:42;;;;;;;37.72;32.20;;;;;;;2.35;100.00;101417.16;5031238;28;20661;-80
2023/12/06 09:09:08;;;;;;;38.13;32.05;;;;;;;2.38;100.00;101414.47;5029799;28;20053;-79
2023/12/06 09:11:34;;;;;;;38.05;32.13;;;;;;;2.41;100.00;101427.41;5029238;28;20026;-79
2023/12/06 09:13:59;;;;;;;36.22;30.95;;;;;;;2.46;100.00;101428.09;5029111;28;20512;-80
2023/12/06 09:16:24;;;;;;;40.92;31.80;;;;;;;2.51;100.00;101420.16;5049239;28;20037;-79
2023/12/06 09:18:50;;;;;;;36.53;31.85;;;;;;;2.62;100.00;101417.22;5048647;28;20029;-80
2023/12/06 09:21:15;;;;;;;39.95;31.60;;;;;;;2.64;100.00;101428.41;5035054;28;20032;-80
2023/12/06 09:23:41;;;;;;;42.35;30.98;;;;;;;2.69;100.00;101416.13;5029596;28;20496;-80
2023/12/06 09:26:09;;;;;;;36.03;30.70;;;;;;;2.73;100.00;101425.50;5030558;28;20037;-80
2023/12/06 09:28:34;;;;;;;33.03;29.50;;;;;;;2.77;100.00;101421.91;5029611;28;20036;-80
2023/12/06 09:31:00;;;;;;;45.10;30.02;;;;;;;2.83;100.00;101420.00;5030529;28;20057;-80
2023/12/06 09:33:26;;;;;;;34.63;28.17;;;;;;;2.84;100.00;101420.84;5029172;28;20371;-80
2023/12/06 09:35:51;;;;;;;34.17;28.35;;;;;;;2.93;100.00;101436.13;5029989;28;20083;-80
2023/12/06 09:38:17;;;;;;;35.80;27.67;;;;;;;2.96;100.00;101425.63;5028696;28;20469;-80
2023/12/06 09:40:42;;;;;;;33.80;28.45;;;;;;;3.08;100.00;101430.41;5057773;28;20016;-80
2023/12/06 09:43:08;;;;;;;32.72;27.90;;;;;;;3.23;100.00;101428.22;5046435;28;20022;-80
2023/12/06 09:45:34;;;;;;;35.25;26.92;;;;;;;3.30;100.00;101434.88;5034330;28;20060;-80
2023/12/06 09:48:00;;;;;;;28.63;25.08;;;;;;;3.36;100.00;101439.88;5029940;28;20067;-80
2023/12/06 09:50:26;;;;;;;29.73;24.27;;;;;;;3.50;100.00;101453.25;5029557;28;20028;-80
2023/12/06 09:52:52;;;;;;;27.90;23.60;;;;;;;3.55;100.00;101453.91;5030146;28;20389;-80
2023/12/06 09:55:25;;;;;;;28.80;23.60;;;;;;;3.64;100.00;101455.38;5029712;28;20029;-81
2023/12/06 09:57:52;;;;;;;28.25;22.60;;;;;;;3.71;100.00;101455.09;5029698;28;20030;-80
2023/12/06 10:00:18;;;;;;;26.20;20.80;;;;;;;3.72;100.00;101463.75;5048408;28;20438;-81
2023/12/06 10:02:53;;;;;;;26.67;21.80;;;;;;;3.84;100.00;101458.09;5054634;28;20603;-81
2023/12/06 10:05:19;;;;;;;22.52;20.00;;;;;;;3.88;100.00;101451.03;5030524;28;20078;-81
2023/12/06 10:07:46;;;;;;;23.17;20.70;;;;;;;4.01;100.00;101457.50;5028577;28;20393;-81
2023/12/06 10:10:19;;;;;;;25.90;20.73;;;;;;;4.07;100.00;101454.66;5028422;28;20171;-81
2023/12/06 10:12:58;;;;;;;23.20;20.02;;;;;;;4.20;100.00;101455.03;5029325;28;20026;-80
2023/12/06 10:15:25;;;;;;;26.35;18.75;;;;;;;4.25;100.00;101448.75;5029447;28;20115;-81
2023/12/06 10:17:50;;;;;;;24.88;18.08;;;;;;;4.31;100.00;101455.47;5029824;28;20473;-81
2023/12/06 10:20:17;;;;;;;24.58;18.70;;;;;;;4.39;100.00;101461.25;5028796;28;20030;-80
2023/12/06 10:22:42;;;;;;;20.85;18.48;;;;;;;4.39;100.00;101462.09;5029478;28;20040;-81
2023/12/06 10:25:08;;;;;;;24.85;17.15;;;;;;;4.47;100.00;101463.56;5045774;28;20037;-81
2023/12/06 10:27:35;;;;;;;20.65;17.17;;;;;;;4.51;100.00;101465.16;5044835;28;20107;-80
2023/12/06 10:30:05;;;;;;;20.70;16.52;;;;;;;4.57;100.00;101467.50;5029624;28;20397;-81
2023/12/06 10:32:32;;;;;;;22.60;16.00;;;;;;;4.59;100.00;101458.72;5028084;28;20025;-81
2023/12/06 10:35:02;;;;;;;24.55;16.33;;;;;;;4.66;100.00;101459.31;5029640;28;20036;-81
2023/12/06 10:37:28;;;;;;;21.15;15.50;;;;;;;4.63;100.00;101457.69;5030313;28;20126;-81
2023/12/06 10:40:09;;;;;;;22.17;15.80;;;;;;;4.69;100.00;101454.00;5043097;28;20016;-81
2023/12/06 10:42:35;;;;;;;21.05;15.43;;;;;;;4.72;100.00;101459.06;5067579;28;20021;-81
2023/12/06 10:45:02;;;;;;;21.85;17.00;;;;;;;4.73;100.00;101450.34;5054131;28;20136;-81
2023/12/06 10:47:28;;;;;;;23.10;15.85;;;;;;;4.77;100.00;101451.06;5029825;28;20095;-81
2023/12/06 10:49:54;;;;;;;21.27;15.88;;;;;;;4.81;100.00;101453.53;5029349;28;20076;-81
2023/12/06 10:52:21;;;;;;;26.05;17.38;;;;;;;4.82;100.00;101455.22;5033131;28;20050;-81
2023/12/06 10:54:47;;;;;;;28.80;17.40;;;;;;;4.85;100.00;101449.88;5047341;28;20118;-81
2023/12/06 10:57:13;;;;;;;26.50;17.85;;;;;;;4.95;100.00;101450.34;5048215;28;20084;-81
2023/12/06 10:59:41;;;;;;;25.90;17.55;;;;;;;5.00;100.00;101449.25;5043365;28;20021;-81
2023/12/06 11:02:08;;;;;;;21.38;15.57;;;;;;;5.03;100.00;101459.53;5048859;28;20036;-81
2023/12/06 11:04:36;;;;;;;22.02;15.10;;;;;;;5.09;100.00;101449.75;5040892;28;20025;-81